Current Conditions
Partly Cloudy
Conditions



Pressure
1006.92 (hPa) - 29.73 (inHG)
Visibility

10.0 (km) - 6.2 (miles)
   Temperature
26  °C
79°F
19  °C
Dewpoint
65  %
 Humidity
   Wind Speed
21  km/h
11  kts
13  mph
5.8  m/s
   Wind Direction
 20°
North North
East
   Airport Data
LBBG
Location Burgas Airport 16 km (10mi)
Metar :LBBG 121330Z 02011KT 9999 FEW030CB SCT039 26/19 Q1007 TEMPO 5000 TSRA
Sun 12th June 13:30 pm
   Raw Metar Info
Raw METAR is the most common format in the world for the transmission of observational weather data. It is highly standardized through the International Civil Aviation Organization (ICAO), which allows it to be understood throughout most of the world.
   API Info
Data Provided by
https://www.checkwx.com/weather/
   © Info
CSS/SVG/PHP scripts were developed by weather34.com for use in the weather34 template © 2015-2022

Guide Info provided by Metar-Wikipedia